Time;durP1;ratioP1;P1;durP2;ratioP2;P2;SDS_P1;SDS_P2;PMS_P1;PMS_P2;Temp;Humidity;BMP_temperature;BMP_pressure;BME280_temperature;BME280_humidity;BME280_pressure;Samples;Min_cycle;Max_cycle;Signal;HPM_P1;HPM_P2
2021/05/20 00:01:33;;;;;;;8.82;3.72;;;;;;;16.02;68.56;93042.72;4914308;29;20099;-87
2021/05/20 00:03:58;;;;;;;8.38;3.05;;;;;;;16.01;68.79;93051.81;4911685;29;20055;-86
2021/05/20 00:06:25;;;;;;;14.93;4.25;;;;;;;15.97;70.10;93045.63;4913850;29;20059;-87
2021/05/20 00:08:50;;;;;;;14.80;4.72;;;;;;;15.97;69.70;93058.94;4914897;29;20030;-88
2021/05/20 00:11:16;;;;;;;8.27;4.15;;;;;;;15.90;70.31;93063.28;4896638;29;20043;-86
2021/05/20 00:13:41;;;;;;;11.70;3.97;;;;;;;15.79;70.81;93060.31;4912153;29;20032;-87
2021/05/20 00:16:07;;;;;;;10.18;3.08;;;;;;;15.74;70.90;93062.44;4914549;29;20060;-85
2021/05/20 00:18:32;;;;;;;12.15;2.80;;;;;;;15.63;71.16;93061.41;4913535;29;20458;-85
2021/05/20 00:20:58;;;;;;;10.68;2.67;;;;;;;15.59;71.25;93042.63;4916994;29;20028;-85
2021/05/20 00:23:23;;;;;;;6.15;2.92;;;;;;;15.62;71.43;93057.19;4911802;29;20042;-85
2021/05/20 00:25:49;;;;;;;10.60;2.70;;;;;;;15.59;71.98;93069.25;4896898;29;20050;-86
2021/05/20 00:28:14;;;;;;;52.90;16.33;;;;;;;15.55;71.76;93071.81;4912418;29;20040;-85
2021/05/20 00:30:40;;;;;;;12.30;4.65;;;;;;;15.41;72.03;93046.66;4911622;29;20132;-87
2021/05/20 00:33:05;;;;;;;7.80;2.92;;;;;;;15.47;71.65;93056.72;4910008;29;20036;-86
2021/05/20 00:35:30;;;;;;;7.47;2.90;;;;;;;15.56;72.32;93053.97;4915201;29;20025;-86
2021/05/20 00:37:56;;;;;;;7.60;3.17;;;;;;;15.42;72.71;93040.22;4913498;29;20138;-86
2021/05/20 00:40:21;;;;;;;11.30;2.47;;;;;;;15.59;72.57;93046.06;4895459;29;20139;-86
2021/05/20 00:42:47;;;;;;;6.50;2.47;;;;;;;15.57;72.39;93039.53;4912294;29;20044;-87
2021/05/20 00:45:14;;;;;;;6.68;2.30;;;;;;;15.54;72.00;93040.22;4912013;29;20421;-85
2021/05/20 00:47:40;;;;;;;8.00;2.45;;;;;;;15.44;73.02;93027.34;4914367;29;20509;-86
2021/05/20 00:50:08;;;;;;;10.60;2.70;;;;;;;15.32;72.81;93028.16;4893978;29;20059;-86
2021/05/20 00:52:35;;;;;;;7.03;3.67;;;;;;;15.36;73.67;93042.34;4911484;29;20500;-86
2021/05/20 00:55:03;;;;;;;7.68;2.97;;;;;;;15.42;73.98;93050.88;4895579;29;20056;-87
2021/05/20 00:57:29;;;;;;;8.27;2.63;;;;;;;15.35;73.26;93037.34;4911929;29;20372;-85
2021/05/20 00:59:55;;;;;;;7.47;2.60;;;;;;;15.42;73.51;93045.53;4914029;29;20035;-86
2021/05/20 01:02:21;;;;;;;8.30;3.22;;;;;;;15.46;73.26;93041.88;4911186;29;20046;-86
2021/05/20 01:04:47;;;;;;;10.32;2.88;;;;;;;15.40;73.63;93031.78;4912408;29;20139;-87
2021/05/20 01:07:13;;;;;;;17.33;7.28;;;;;;;15.59;72.44;93034.63;4893572;29;20531;-86
2021/05/20 01:09:38;;;;;;;10.82;3.88;;;;;;;15.40;72.76;93026.44;4912909;29;20056;-86
2021/05/20 01:12:08;;;;;;;10.73;3.95;;;;;;;15.39;73.65;93033.69;4912395;29;20047;-85
2021/05/20 01:14:41;;;;;;;14.38;4.00;;;;;;;15.34;74.41;93027.81;4913690;29;20095;-87
2021/05/20 01:17:07;;;;;;;8.60;2.97;;;;;;;15.27;74.65;93023.06;4912456;29;20407;-87
2021/05/20 01:19:37;;;;;;;7.57;3.25;;;;;;;15.33;74.62;93026.25;4907725;29;20044;-85
2021/05/20 01:22:03;;;;;;;9.90;3.22;;;;;;;15.23;74.69;93024.84;4910034;29;20065;-86
2021/05/20 01:24:28;;;;;;;10.35;4.07;;;;;;;15.33;74.76;93015.63;4894929;29;20572;-86
2021/05/20 01:26:54;;;;;;;9.63;3.40;;;;;;;15.22;74.25;92998.56;4914092;29;20031;-88
2021/05/20 01:29:19;;;;;;;9.52;3.05;;;;;;;15.22;73.43;92987.91;4911938;29;20055;-88
2021/05/20 01:31:45;;;;;;;12.07;4.85;;;;;;;15.30;73.48;93011.72;4911810;29;20096;-86
2021/05/20 01:34:10;;;;;;;12.20;4.97;;;;;;;15.27;73.66;93011.63;4910266;29;20055;-87
2021/05/20 01:36:36;;;;;;;12.30;4.30;;;;;;;15.25;73.89;93000.56;4912148;29;20044;-87
2021/05/20 01:39:03;;;;;;;18.02;6.82;;;;;;;15.33;73.61;92999.63;4915245;29;20043;-86
2021/05/20 01:41:29;;;;;;;14.77;5.25;;;;;;;14.99;73.53;92964.47;4896575;29;20047;-86
2021/05/20 01:43:54;;;;;;;14.05;5.10;;;;;;;15.00;73.90;92976.63;4911250;28;20055;-86
2021/05/20 01:46:20;;;;;;;15.57;3.83;;;;;;;14.99;74.04;92993.72;4895535;29;20350;-88
2021/05/20 01:48:48;;;;;;;8.32;2.60;;;;;;;14.74;74.52;92960.28;4912525;29;20389;-89
2021/05/20 01:51:17;;;;;;;9.07;3.63;;;;;;;14.77;74.60;92956.16;4912366;29;20024;-87
2021/05/20 01:53:44;;;;;;;12.57;6.28;;;;;;;14.84;74.91;92973.13;4913325;29;20027;-88
2021/05/20 01:56:10;;;;;;;5.82;3.58;;;;;;;14.67;74.32;92941.44;4907877;29;20041;-87
2021/05/20 01:58:37;;;;;;;17.17;7.10;;;;;;;14.66;74.19;92953.94;4915039;29;20044;-86
2021/05/20 02:01:04;;;;;;;11.50;4.40;;;;;;;14.59;74.46;92940.44;4915203;29;20062;-85
2021/05/20 02:03:30;;;;;;;8.52;3.33;;;;;;;14.71;74.35;92963.59;4916256;29;20607;-87
2021/05/20 02:05:57;;;;;;;11.07;3.25;;;;;;;14.73;74.62;92966.69;4917261;29;20086;-84
2021/05/20 02:08:27;;;;;;;18.77;7.32;;;;;;;14.68;74.28;92956.28;4915391;29;20631;-87
2021/05/20 02:10:53;;;;;;;15.45;5.43;;;;;;;14.69;74.28;92965.81;4914472;29;20051;-87
2021/05/20 02:13:18;;;;;;;23.08;7.82;;;;;;;14.68;74.35;92962.38;4914148;29;20095;-87
2021/05/20 02:15:44;;;;;;;10.65;4.72;;;;;;;14.63;74.24;92959.16;4915640;29;20087;-87
2021/05/20 02:18:09;;;;;;;16.92;5.45;;;;;;;14.46;75.15;92956.75;4914468;29;20032;-87
2021/05/20 02:20:35;;;;;;;14.02;5.28;;;;;;;14.48;74.86;92965.16;4917108;29;20500;-86
2021/05/20 02:23:02;;;;;;;11.57;4.00;;;;;;;14.39;74.55;92953.84;4906118;29;20123;-87
2021/05/20 02:25:27;;;;;;;13.73;4.18;;;;;;;14.39;75.01;92945.88;4900558;29;20039;-87
2021/05/20 02:27:53;;;;;;;8.00;3.70;;;;;;;14.35;75.11;92937.00;4914567;29;20095;-86
2021/05/20 02:30:19;;;;;;;8.43;2.60;;;;;;;14.46;75.20;92938.91;4915397;29;20573;-87
2021/05/20 02:32:45;;;;;;;10.40;4.70;;;;;;;14.52;75.35;92937.56;4899058;29;20461;-86
2021/05/20 02:35:11;;;;;;;24.67;10.45;;;;;;;14.51;75.26;92937.91;4897666;29;20044;-87
2021/05/20 02:37:38;;;;;;;14.30;4.88;;;;;;;14.49;75.53;92938.25;4904433;29;20128;-87
2021/05/20 02:40:05;;;;;;;9.77;3.55;;;;;;;14.38;75.72;92923.84;4915161;29;20067;-86
2021/05/20 02:42:31;;;;;;;7.35;3.47;;;;;;;14.48;75.51;92938.56;4913386;29;20032;-85
2021/05/20 02:44:57;;;;;;;10.07;3.30;;;;;;;14.49;75.49;92940.91;4915284;29;20086;-86
2021/05/20 02:47:23;;;;;;;15.68;5.85;;;;;;;14.45;75.63;92931.25;4915365;29;20429;-88
2021/05/20 02:49:48;;;;;;;12.70;3.55;;;;;;;14.43;75.93;92936.91;4911692;29;20039;-85
2021/05/20 02:52:13;;;;;;;8.63;3.20;;;;;;;14.38;76.00;92939.00;4913581;29;20043;-86
2021/05/20 02:54:40;;;;;;;5.45;2.20;;;;;;;14.48;75.69;92949.97;4903604;29;20501;-87
2021/05/20 02:57:06;;;;;;;16.52;7.18;;;;;;;14.53;75.46;92949.75;4913845;29;20078;-86
2021/05/20 02:59:32;;;;;;;9.35;4.43;;;;;;;14.32;75.66;92917.94;4917116;29;20532;-85
2021/05/20 03:02:04;;;;;;;6.72;2.97;;;;;;;14.49;76.62;92956.84;4914179;29;20044;-87
2021/05/20 03:04:37;;;;;;;7.65;4.15;;;;;;;14.61;76.63;92956.81;4914378;29;20519;-86
2021/05/20 03:07:05;;;;;;;12.98;4.97;;;;;;;14.68;75.41;92949.09;4894394;29;20506;-85
2021/05/20 03:09:31;;;;;;;7.55;2.60;;;;;;;14.66;74.97;92947.88;4914767;29;20396;-84
2021/05/20 03:11:59;;;;;;;6.63;2.97;;;;;;;14.61;74.87;92948.09;4900076;29;20039;-85
2021/05/20 03:14:25;;;;;;;5.30;2.75;;;;;;;14.62;75.38;92949.63;4913491;29;20059;-81
2021/05/20 03:16:51;;;;;;;7.13;3.17;;;;;;;14.64;75.53;92955.41;4914723;29;20111;-85
2021/05/20 03:19:16;;;;;;;10.27;3.65;;;;;;;14.46;76.83;92952.22;4912522;29;20484;-88
2021/05/20 03:21:42;;;;;;;9.07;3.72;;;;;;;14.53;76.67;92963.03;4913002;29;20281;-84
2021/05/20 03:24:08;;;;;;;11.15;4.07;;;;;;;14.44;77.00;92974.91;4894977;29;20056;-83
2021/05/20 03:26:34;;;;;;;5.85;3.22;;;;;;;14.27;77.58;92960.66;4914379;29;20055;-86
2021/05/20 03:29:00;;;;;;;8.25;3.92;;;;;;;14.37;77.68;92983.41;4913900;29;20126;-84
2021/05/20 03:31:26;;;;;;;6.35;3.47;;;;;;;14.26;77.68;92956.50;4914779;29;20051;-84
2021/05/20 03:33:51;;;;;;;7.93;3.33;;;;;;;14.27;77.83;92965.97;4912879;29;20066;-85
2021/05/20 03:36:17;;;;;;;9.48;3.53;;;;;;;14.33;78.69;92977.97;4911649;29;20036;-84
2021/05/20 03:38:42;;;;;;;8.82;4.00;;;;;;;14.43;79.02;93000.69;4916899;29;20019;-84
2021/05/20 03:41:08;;;;;;;4.32;2.50;;;;;;;14.24;75.65;92998.53;4912420;29;20043;-85
2021/05/20 03:43:36;;;;;;;2.50;2.03;;;;;;;14.05;76.08;93006.25;4913858;29;20401;-87
2021/05/20 03:46:03;;;;;;;4.10;1.65;;;;;;;13.92;75.58;93010.00;4913600;29;20254;-86
2021/05/20 03:48:29;;;;;;;3.00;2.33;;;;;;;13.76;76.41;93009.03;4913069;29;20107;-84
2021/05/20 03:50:56;;;;;;;2.17;1.83;;;;;;;13.50;74.73;92982.72;4916794;29;20023;-83
2021/05/20 03:53:21;;;;;;;6.10;2.40;;;;;;;13.55;75.66;92997.66;4911233;29;20281;-87
2021/05/20 03:55:48;;;;;;;3.95;2.33;;;;;;;13.69;75.64;93020.19;4914028;29;20442;-84
2021/05/20 03:58:14;;;;;;;2.05;1.85;;;;;;;13.58;75.56;93019.06;4911771;29;20052;-86
2021/05/20 04:00:40;;;;;;;3.72;1.70;;;;;;;13.58;75.60;93015.63;4912815;29;20046;-84
2021/05/20 04:03:06;;;;;;;4.90;2.03;;;;;;;13.49;74.59;93017.56;4911710;29;20015;-86
2021/05/20 04:05:31;;;;;;;3.83;1.90;;;;;;;13.40;75.23;92994.53;4896613;29;20464;-85
2021/05/20 04:07:57;;;;;;;3.05;1.83;;;;;;;13.61;74.81;93017.63;4913088;29;20127;-84
2021/05/20 04:10:24;;;;;;;3.70;2.50;;;;;;;13.57;75.32;93011.41;4895782;29;20078;-84
2021/05/20 04:12:49;;;;;;;2.92;2.05;;;;;;;13.59;74.87;93015.28;4912971;29;20036;-86
2021/05/20 04:15:15;;;;;;;2.63;1.70;;;;;;;13.61;72.94;93017.63;4911534;29;20035;-84
2021/05/20 04:17:40;;;;;;;2.25;1.50;;;;;;;13.54;73.51;93001.44;4905681;29;20047;-84
2021/05/20 04:20:06;;;;;;;3.13;1.40;;;;;;;13.71;71.84;93018.00;4911705;29;20130;-84
2021/05/20 04:22:31;;;;;;;2.25;1.60;;;;;;;13.92;71.75;93012.66;4902031;29;20146;-85
2021/05/20 04:24:57;;;;;;;1.50;1.40;;;;;;;14.37;72.04;92995.94;4913572;29;20053;-84
2021/05/20 04:27:22;;;;;;;3.70;2.65;;;;;;;14.79;72.70;93018.56;4912231;29;26638;-84
2021/05/20 04:29:48;;;;;;;3.15;2.15;;;;;;;14.96;73.03;92997.03;4915181;29;20050;-85
2021/05/20 04:32:13;;;;;;;5.32;2.47;;;;;;;15.40;71.80;93026.44;4894409;29;20040;-85
2021/05/20 04:34:39;;;;;;;4.32;2.53;;;;;;;15.58;71.22;93017.91;4913305;29;20497;-84
2021/05/20 04:37:08;;;;;;;3.35;1.60;;;;;;;15.95;70.19;93026.53;4912351;29;20039;-84
2021/05/20 04:39:34;;;;;;;2.05;1.70;;;;;;;16.00;67.76;93023.63;4911538;29;20099;-84
2021/05/20 04:42:00;;;;;;;11.57;4.93;;;;;;;15.95;62.66;93033.75;4912710;29;20370;-84
2021/05/20 04:44:26;;;;;;;4.53;1.95;;;;;;;15.89;63.42;93033.22;4911861;29;20075;-82
2021/05/20 04:46:51;;;;;;;1.85;1.40;;;;;;;15.89;64.05;93033.22;4912739;29;20052;-83
2021/05/20 04:49:16;;;;;;;4.35;1.73;;;;;;;15.78;64.02;93013.50;4909863;29;20048;-83
2021/05/20 04:51:42;;;;;;;2.45;1.25;;;;;;;15.95;63.38;93047.84;4914075;29;20051;-81
2021/05/20 04:54:08;;;;;;;2.25;1.27;;;;;;;15.86;63.60;93033.91;4911780;29;20090;-83
2021/05/20 04:56:34;;;;;;;1.85;1.52;;;;;;;15.86;67.16;93033.91;4914747;29;20028;-82
2021/05/20 04:59:00;;;;;;;3.45;1.58;;;;;;;15.96;65.97;93037.97;4911852;29;20512;-82
2021/05/20 05:01:25;;;;;;;2.25;1.45;;;;;;;15.79;60.95;93031.03;4910828;29;20066;-82
2021/05/20 05:03:51;;;;;;;4.60;2.10;;;;;;;15.91;63.75;93035.53;4893702;29;20310;-82
2021/05/20 05:06:16;;;;;;;4.65;2.40;;;;;;;15.98;66.04;93047.16;4910846;29;20578;-82
2021/05/20 05:08:42;;;;;;;1.35;1.25;;;;;;;16.23;66.28;93049.72;4915147;29;20031;-82
2021/05/20 05:11:07;;;;;;;3.72;1.70;;;;;;;17.14;64.98;93047.81;4912876;29;20048;-83
2021/05/20 05:13:33;;;;;;;2.35;1.10;;;;;;;17.58;62.34;93053.72;4909931;29;20560;-82
2021/05/20 05:15:59;;;;;;;1.98;1.00;;;;;;;17.75;59.30;93053.34;4912519;29;20094;-82
2021/05/20 05:18:25;;;;;;;2.45;1.23;;;;;;;17.58;58.71;93040.38;4911096;29;20047;-82
2021/05/20 05:20:51;;;;;;;1.67;1.50;;;;;;;17.43;60.03;93049.97;4899412;29;20036;-82
2021/05/20 05:23:16;;;;;;;2.05;1.33;;;;;;;17.22;60.85;93044.94;4909035;29;20044;-83
2021/05/20 05:25:41;;;;;;;2.08;1.40;;;;;;;17.00;62.66;93052.81;4910548;29;20040;-82
2021/05/20 05:28:07;;;;;;;4.13;2.50;;;;;;;16.85;64.29;93055.16;4911860;29;20801;-82
2021/05/20 05:30:33;;;;;;;3.42;2.00;;;;;;;16.42;65.46;93055.94;4916021;29;20489;-85
2021/05/20 05:32:59;;;;;;;5.47;1.50;;;;;;;16.03;66.34;93054.91;4915813;29;20556;-83
2021/05/20 05:35:25;;;;;;;1.75;1.42;;;;;;;15.96;67.17;93070.72;4915521;29;20055;-84
2021/05/20 05:37:50;;;;;;;5.30;2.00;;;;;;;15.85;67.96;93072.31;4915278;29;20036;-84
2021/05/20 05:40:16;;;;;;;7.97;1.85;;;;;;;15.52;66.69;93069.06;4914547;29;20509;-86
2021/05/20 05:42:41;;;;;;;2.95;1.13;;;;;;;15.17;69.22;93068.75;4915436;29;20044;-83
2021/05/20 05:45:07;;;;;;;7.18;1.52;;;;;;;14.57;71.52;93083.56;4913606;29;20047;-80
2021/05/20 05:47:34;;;;;;;4.28;0.90;;;;;;;14.56;72.92;93091.91;4901965;29;20024;-81
2021/05/20 05:50:08;;;;;;;1.25;0.90;;;;;;;14.31;73.18;93101.66;4915937;29;20534;-84
2021/05/20 05:52:34;;;;;;;1.40;0.88;;;;;;;14.17;72.72;93115.22;4916521;29;20281;-82
2021/05/20 05:54:59;;;;;;;1.88;0.90;;;;;;;13.98;73.41;93114.13;4915917;29;20059;-82
2021/05/20 05:57:25;;;;;;;1.92;0.88;;;;;;;13.78;74.89;93129.00;4914231;29;21048;-84
2021/05/20 05:59:51;;;;;;;2.10;1.20;;;;;;;13.66;74.91;93119.09;4918215;29;20028;-82
2021/05/20 06:02:18;;;;;;;0.75;0.75;;;;;;;13.59;74.29;93140.03;4912969;29;20595;-86
2021/05/20 06:04:45;;;;;;;2.45;0.75;;;;;;;13.59;74.40;93147.22;4915911;29;20052;-84
2021/05/20 06:07:10;;;;;;;1.10;0.85;;;;;;;13.55;72.87;93180.84;4913980;29;20044;-82
2021/05/20 06:09:35;;;;;;;2.47;1.00;;;;;;;13.40;74.58;93182.94;4914747;29;20033;-84
2021/05/20 06:12:01;;;;;;;1.17;0.82;;;;;;;13.43;75.26;93169.03;4915001;29;20031;-84
2021/05/20 06:14:26;;;;;;;0.85;0.70;;;;;;;13.33;74.98;93174.72;4912468;29;20040;-84
2021/05/20 06:16:52;;;;;;;1.17;0.90;;;;;;;13.28;74.02;93169.59;4915763;29;20035;-83
2021/05/20 06:19:17;;;;;;;1.55;0.73;;;;;;;13.10;73.66;93162.75;4913607;29;20599;-82
2021/05/20 06:21:43;;;;;;;2.67;0.93;;;;;;;13.21;74.97;93158.69;4916844;29;20043;-86
2021/05/20 06:24:10;;;;;;;0.85;0.85;;;;;;;13.25;74.26;93154.28;4904588;29;20654;-84
2021/05/20 06:26:36;;;;;;;2.38;0.90;;;;;;;13.39;74.28;93157.50;4917411;29;20114;-85
2021/05/20 06:29:01;;;;;;;3.30;0.98;;;;;;;13.63;74.66;93164.09;4915322;29;20068;-85
2021/05/20 06:31:28;;;;;;;1.52;0.90;;;;;;;13.72;71.33;93162.16;4914231;29;20172;-84
2021/05/20 06:33:54;;;;;;;1.08;0.85;;;;;;;13.91;70.43;93157.16;4912682;29;20047;-87
2021/05/20 06:36:19;;;;;;;2.83;0.88;;;;;;;13.97;70.36;93166.50;4915384;29;20038;-82
2021/05/20 06:38:45;;;;;;;3.17;1.55;;;;;;;13.93;68.87;93157.59;4915857;29;20043;-81
2021/05/20 06:41:10;;;;;;;2.42;0.70;;;;;;;14.04;67.47;93172.06;4913469;29;20191;-82
2021/05/20 06:43:37;;;;;;;2.08;0.63;;;;;;;14.06;68.01;93177.84;4913602;29;20496;-85
2021/05/20 06:46:06;;;;;;;0.73;0.68;;;;;;;14.02;66.73;93171.63;4912599;29;20064;-85
2021/05/20 06:48:33;;;;;;;0.60;0.60;;;;;;;13.89;67.07;93170.78;4914372;29;20063;-85
2021/05/20 06:50:58;;;;;;;0.60;0.60;;;;;;;13.80;66.96;93162.09;4914802;29;20086;-85
2021/05/20 06:53:25;;;;;;;0.98;0.90;;;;;;;13.67;65.79;93181.72;4913854;29;20032;-83
2021/05/20 06:55:54;;;;;;;2.15;0.60;;;;;;;13.51;66.15;93182.56;4915595;29;20044;-83
2021/05/20 07:01:04;;;;;;;1.40;0.88;;;;;;;13.61;66.77;93166.28;4914544;29;20054;-81
2021/05/20 07:03:29;;;;;;;1.00;0.60;;;;;;;13.71;65.53;93176.53;4913079;29;20032;-83
2021/05/20 07:05:55;;;;;;;2.78;1.13;;;;;;;13.60;63.26;93180.66;4915313;29;20047;-87
2021/05/20 07:08:21;;;;;;;2.30;0.70;;;;;;;13.88;65.91;93177.19;4912763;29;20497;-82
2021/05/20 07:10:47;;;;;;;3.95;1.10;;;;;;;14.01;64.98;93148.81;4912515;29;20036;-84
2021/05/20 07:13:12;;;;;;;5.65;2.13;;;;;;;14.15;62.46;93170.56;4893900;29;20568;-83
2021/05/20 07:15:38;;;;;;;0.95;0.60;;;;;;;14.18;62.74;93161.16;4912124;29;20044;-82
2021/05/20 07:18:03;;;;;;;1.08;0.40;;;;;;;14.42;63.80;93163.16;4914536;29;20114;-83
2021/05/20 07:20:29;;;;;;;1.40;0.70;;;;;;;14.72;61.95;93167.25;4914091;29;20576;-82
2021/05/20 07:22:54;;;;;;;0.45;0.40;;;;;;;14.96;60.87;93167.31;4913809;29;20591;-83
2021/05/20 07:25:19;;;;;;;0.35;0.35;;;;;;;15.22;62.17;93169.66;4911036;29;20048;-82
2021/05/20 07:27:45;;;;;;;0.30;0.30;;;;;;;15.60;60.81;93174.69;4913670;29;20039;-84
2021/05/20 07:30:11;;;;;;;1.73;0.80;;;;;;;15.79;59.97;93166.88;4915213;29;20055;-83
2021/05/20 07:32:37;;;;;;;0.20;0.20;;;;;;;15.87;59.39;93176.66;4916159;29;20035;-81
2021/05/20 07:35:02;;;;;;;0.30;0.20;;;;;;;16.01;58.71;93178.97;4915764;29;20055;-82
2021/05/20 07:37:28;;;;;;;0.30;0.30;;;;;;;15.94;59.06;93147.53;4913296;29;20055;-84
2021/05/20 07:39:53;;;;;;;0.57;0.30;;;;;;;15.76;57.12;93164.91;4910651;29;20133;-84
2021/05/20 07:42:19;;;;;;;1.40;0.35;;;;;;;15.64;58.77;93156.91;4911376;29;20638;-83
2021/05/20 07:44:46;;;;;;;0.40;0.40;;;;;;;15.54;59.18;93155.47;4915462;29;20557;-83
2021/05/20 07:47:11;;;;;;;2.38;0.50;;;;;;;15.32;60.04;93179.09;4914810;29;20573;-83
2021/05/20 07:49:38;;;;;;;0.40;0.40;;;;;;;15.10;60.28;93151.78;4911915;29;20032;-83
2021/05/20 07:52:06;;;;;;;0.82;0.50;;;;;;;15.04;60.74;93184.28;4912455;29;20292;-85
2021/05/20 07:54:34;;;;;;;0.52;0.40;;;;;;;15.12;61.20;93184.19;4913472;29;20043;-85
2021/05/20 07:57:00;;;;;;;0.50;0.50;;;;;;;15.00;63.14;93162.13;4914248;29;20028;-86
2021/05/20 07:59:25;;;;;;;1.95;0.52;;;;;;;14.80;62.17;93173.59;4912477;29;20520;-84
2021/05/20 08:02:31;;;;;;;0.50;0.50;;;;;;;14.89;62.27;93193.69;4911744;29;20491;-86
2021/05/20 08:04:45;;;;;;;1.55;1.05;;;;;;;14.87;62.45;93208.41;4909650;29;20048;-86
2021/05/20 08:07:23;;;;;;;2.45;0.90;;;;;;;14.94;63.71;93213.97;4910540;29;20497;-86
2021/05/20 08:10:01;;;;;;;1.48;0.47;;;;;;;15.15;61.31;93185.41;4905757;29;20052;-85
2021/05/20 08:12:27;;;;;;;0.60;0.60;;;;;;;15.63;61.43;93227.28;4899344;29;20397;-85
2021/05/20 08:14:54;;;;;;;0.93;0.70;;;;;;;15.47;59.37;93205.06;4879169;29;20020;-86
2021/05/20 08:17:19;;;;;;;1.50;0.60;;;;;;;15.41;58.53;93204.50;4910411;29;20115;-85
2021/05/20 08:19:44;;;;;;;0.55;0.50;;;;;;;15.72;59.03;93208.53;4909976;29;20126;-87
2021/05/20 08:22:10;;;;;;;0.40;0.40;;;;;;;15.64;57.31;93230.75;4911732;29;20269;-84
2021/05/20 08:24:35;;;;;;;0.40;0.40;;;;;;;15.78;57.34;93226.63;4910973;29;20050;-86
2021/05/20 08:27:00;;;;;;;0.52;0.52;;;;;;;15.84;59.43;93211.94;4897574;29;20492;-86
2021/05/20 08:29:28;;;;;;;0.77;0.60;;;;;;;16.10;60.51;93221.47;4915876;29;20019;-85
2021/05/20 08:31:53;;;;;;;1.50;0.82;;;;;;;16.29;56.70;93232.31;4900564;29;20048;-86
2021/05/20 08:34:19;;;;;;;1.08;0.52;;;;;;;16.32;55.00;93223.66;4909924;29;20050;-86
2021/05/20 08:36:45;;;;;;;9.93;0.70;;;;;;;16.37;54.69;93234.09;4909608;29;20139;-84
2021/05/20 08:39:10;;;;;;;0.68;0.40;;;;;;;16.37;54.84;93228.75;4901977;29;20070;-85
2021/05/20 08:41:36;;;;;;;1.13;0.70;;;;;;;16.70;56.75;93237.34;4897096;29;20484;-85
2021/05/20 08:44:27;;;;;;;1.23;0.60;;;;;;;17.12;55.65;93231.56;4840241;29;20101;-86
2021/05/20 08:46:56;;;;;;;0.98;0.30;;;;;;;17.50;52.83;93242.44;4907889;29;20175;-84
2021/05/20 08:49:22;;;;;;;1.13;0.40;;;;;;;17.88;52.85;93231.19;4911330;29;20040;-85
2021/05/20 08:51:48;;;;;;;1.60;0.70;;;;;;;18.10;51.63;93232.44;4914343;29;20036;-86
2021/05/20 08:54:15;;;;;;;2.97;0.80;;;;;;;18.17;51.07;93225.34;4911606;29;20481;-85
2021/05/20 08:56:44;;;;;;;4.25;1.00;;;;;;;18.27;50.90;93236.63;4913121;29;20048;-86
2021/05/20 08:59:09;;;;;;;3.00;0.55;;;;;;;18.36;50.67;93243.31;4911840;29;20469;-86
2021/05/20 09:01:43;;;;;;;2.78;0.60;;;;;;;18.33;51.69;93235.97;4910266;29;20051;-86
2021/05/20 09:04:10;;;;;;;0.40;0.40;;;;;;;18.23;52.00;93239.19;4912302;29;20131;-86
2021/05/20 09:06:41;;;;;;;0.40;0.40;;;;;;;18.36;50.24;93237.97;4909786;29;20060;-85
2021/05/20 09:09:29;;;;;;;0.73;0.43;;;;;;;18.39;50.60;93234.59;4915697;29;20134;-87
2021/05/20 09:11:57;;;;;;;0.45;0.40;;;;;;;18.31;49.39;93232.91;4914603;29;20043;-85
2021/05/20 09:14:41;;;;;;;1.67;0.52;;;;;;;18.34;50.28;93232.19;4916445;29;20039;-86
2021/05/20 09:17:15;;;;;;;6.85;0.88;;;;;;;18.27;51.36;93210.66;4900623;29;20048;-87
2021/05/20 09:19:43;;;;;;;13.13;1.58;;;;;;;18.68;51.90;93227.16;4913451;29;20115;-85
2021/05/20 09:22:11;;;;;;;1.33;0.70;;;;;;;19.07;49.87;93220.66;4916286;29;20031;-86
2021/05/20 09:24:46;;;;;;;2.92;0.55;;;;;;;19.45;47.91;93231.31;4917743;29;20027;-86
2021/05/20 09:27:45;;;;;;;9.30;0.88;;;;;;;19.64;47.51;93219.78;4914844;29;20370;-86
2021/05/20 09:30:24;;;;;;;2.92;0.40;;;;;;;19.78;46.36;93211.19;4897478;29;20047;-87
2021/05/20 09:32:59;;;;;;;2.28;0.43;;;;;;;19.83;47.84;93211.66;4915766;29;21062;-87
2021/05/20 09:35:32;;;;;;;1.65;0.38;;;;;;;19.71;44.07;93216.41;4915294;29;20199;-85
2021/05/20 09:38:05;;;;;;;3.70;0.45;;;;;;;19.85;46.75;93211.28;4913579;29;20627;-88
2021/05/20 09:40:37;;;;;;;0.40;0.30;;;;;;;20.06;45.28;93195.50;4900630;29;20095;-87
2021/05/20 09:43:33;;;;;;;1.13;0.40;;;;;;;19.97;43.78;93211.09;4916680;29;20034;-87
2021/05/20 09:46:04;;;;;;;3.10;0.50;;;;;;;19.80;42.48;93214.25;4913524;29;20163;-84
2021/05/20 09:48:35;;;;;;;1.58;0.90;;;;;;;19.62;44.06;93208.63;4918348;29;20040;-86
2021/05/20 09:51:01;;;;;;;0.65;0.60;;;;;;;19.59;45.03;93195.19;4913880;29;20040;-86
2021/05/20 09:53:28;;;;;;;1.30;0.60;;;;;;;19.58;43.36;93207.81;4912986;29;20417;-87
2021/05/20 09:55:58;;;;;;;2.78;0.50;;;;;;;19.44;44.18;93224.44;4915292;29;21538;-85
2021/05/20 09:58:28;;;;;;;3.83;0.60;;;;;;;19.37;45.38;93210.09;4915931;29;20043;-84
2021/05/20 10:00:56;;;;;;;0.50;0.50;;;;;;;19.18;46.08;93213.59;4900255;29;20028;-86
2021/05/20 10:03:22;;;;;;;0.75;0.50;;;;;;;19.13;47.40;93207.75;4915629;29;20496;-87
2021/05/20 10:05:52;;;;;;;1.35;0.70;;;;;;;19.17;48.61;93205.91;4913836;29;20113;-86
2021/05/20 10:08:19;;;;;;;1.58;0.65;;;;;;;19.39;47.99;93216.66;4914691;29;20571;-86
2021/05/20 10:10:50;;;;;;;0.80;0.45;;;;;;;19.68;46.92;93212.56;4916085;29;20044;-85
2021/05/20 10:13:18;;;;;;;1.90;0.60;;;;;;;19.77;46.28;93204.28;4897371;29;20032;-83
2021/05/20 10:15:44;;;;;;;0.60;0.43;;;;;;;19.86;44.87;93196.75;4916099;29;20076;-87
2021/05/20 10:18:21;;;;;;;0.52;0.50;;;;;;;20.11;45.15;93203.25;4914998;29;20082;-86
2021/05/20 10:20:49;;;;;;;1.13;0.57;;;;;;;20.14;44.04;93202.50;4913022;29;20588;-87
2021/05/20 10:23:19;;;;;;;2.10;0.60;;;;;;;20.13;43.79;93195.63;4914415;29;20556;-87
2021/05/20 10:25:46;;;;;;;0.82;0.50;;;;;;;20.35;42.71;93185.97;4913979;29;20076;-85
2021/05/20 10:28:14;;;;;;;1.98;0.60;;;;;;;20.43;43.20;93184.91;4915024;29;20143;-86
2021/05/20 10:30:42;;;;;;;3.40;0.70;;;;;;;20.71;42.15;93187.19;4915721;29;20023;-86
2021/05/20 10:33:09;;;;;;;1.80;1.00;;;;;;;20.89;43.01;93190.84;4896125;29;20051;-85
2021/05/20 10:35:49;;;;;;;1.25;0.80;;;;;;;20.74;40.37;93202.56;4916163;29;20047;-88
2021/05/20 10:38:38;;;;;;;2.90;1.48;;;;;;;20.73;42.57;93177.59;4915919;29;20581;-86
2021/05/20 10:41:17;;;;;;;1.50;0.77;;;;;;;20.77;40.78;93191.84;4900472;29;20131;-87
2021/05/20 10:43:47;;;;;;;3.22;0.70;;;;;;;20.70;42.15;93185.63;4916263;29;20052;-90
2021/05/20 10:46:14;;;;;;;1.55;1.20;;;;;;;20.53;42.88;93191.53;4912469;29;20698;-87
2021/05/20 10:48:54;;;;;;;3.33;1.10;;;;;;;20.30;42.77;93189.75;4901786;29;20027;-87
2021/05/20 10:51:21;;;;;;;3.13;1.02;;;;;;;20.29;43.96;93182.78;4913287;29;20040;-88
2021/05/20 10:54:05;;;;;;;3.60;1.52;;;;;;;20.16;42.68;93194.88;4911799;29;20118;-87
2021/05/20 10:56:31;;;;;;;2.08;1.35;;;;;;;19.94;42.13;93192.28;4913403;29;20043;-88
2021/05/20 10:58:58;;;;;;;3.15;1.45;;;;;;;19.69;41.66;93190.00;4913886;29;20056;-88
2021/05/20 11:01:24;;;;;;;2.38;1.50;;;;;;;19.75;44.78;93183.19;4915608;29;20044;-89
2021/05/20 11:03:53;;;;;;;2.85;1.35;;;;;;;19.89;42.35;93179.94;4916734;29;20035;-87
2021/05/20 11:06:22;;;;;;;6.97;2.20;;;;;;;20.04;42.41;93157.53;4914224;29;20509;-89
2021/05/20 11:08:47;;;;;;;1.00;0.98;;;;;;;20.50;43.03;93162.75;4913094;29;20766;-89
2021/05/20 11:11:31;;;;;;;2.03;0.90;;;;;;;20.79;41.93;93161.94;4913971;29;20139;-86
2021/05/20 11:14:03;;;;;;;1.52;1.20;;;;;;;20.93;40.39;93145.22;4914399;28;20044;-89
2021/05/20 11:16:30;;;;;;;5.35;1.00;;;;;;;20.91;39.77;93147.50;4896325;29;20947;-84
